New Orleans, Louisiana
Traffic Map
Current Weather Conditions
New Orleans, Louisiana
Few Clouds
Few Clouds
90°
Feels Like: 98°
Wind Chill: 90° Ceiling: Unl
Heat Index: 98° Visibility: mi
Dew Point: 73° Wind: 7mph
Humidity: 59% Direction: 220° (SW)
Pressure: 30.09in Gusts: 0mph
Raw Report DataK7N0 301635Z AUTO 22006KT FEW034 FEW043 32/23 A3009 RMK AO1
Traffic Incident Summary
Active as of:
Severity:
Category:
InformationThere was an issue retrieving the traffic information for this location. Please try a different location or try again shortly.
Advertisements
Track Severe Weather on mobile